createdAt,value
2023-10-14T00:01:33.328Z,21.32
2023-10-14T00:04:00.006Z,21.34
2023-10-14T00:06:26.707Z,21.38
2023-10-14T00:08:53.227Z,21.39
2023-10-14T00:11:19.700Z,21.38
2023-10-14T00:13:46.171Z,21.37
2023-10-14T00:16:12.803Z,21.37
2023-10-14T00:18:39.523Z,21.34
2023-10-14T00:21:06.069Z,21.33
2023-10-14T00:23:32.516Z,21.32
2023-10-14T00:25:58.997Z,21.31
2023-10-14T00:28:25.428Z,21.29
2023-10-14T00:30:51.890Z,21.29
2023-10-14T00:33:18.416Z,21.30
2023-10-14T00:35:44.841Z,21.27
2023-10-14T00:38:11.323Z,21.26
2023-10-14T00:40:37.779Z,21.28
2023-10-14T00:43:04.237Z,21.25
2023-10-14T00:45:30.735Z,21.13
2023-10-14T00:47:57.234Z,20.98
2023-10-14T00:50:23.716Z,20.87
2023-10-14T00:52:50.166Z,20.76
2023-10-14T00:55:16.642Z,20.66
2023-10-14T00:57:43.149Z,20.60
2023-10-14T01:00:09.619Z,20.58
2023-10-14T01:02:36.082Z,20.52
2023-10-14T01:05:02.557Z,20.49
2023-10-14T01:07:29.002Z,20.41
2023-10-14T01:09:55.795Z,20.37
2023-10-14T01:12:22.302Z,20.37
2023-10-14T01:14:48.762Z,20.36
2023-10-14T01:17:15.256Z,20.36
2023-10-14T01:19:41.755Z,20.34
2023-10-14T01:22:08.249Z,20.26
2023-10-14T01:24:34.729Z,20.21
2023-10-14T01:27:01.179Z,20.17
2023-10-14T01:29:27.632Z,20.12
2023-10-14T01:31:54.159Z,20.08
2023-10-14T01:34:20.626Z,20.06
2023-10-14T01:36:47.181Z,20.02
2023-10-14T01:39:13.648Z,20.02
2023-10-14T01:41:40.163Z,20.05
2023-10-14T01:44:06.628Z,20.05
2023-10-14T01:46:33.162Z,20.03
2023-10-14T01:48:59.837Z,20.02
2023-10-14T01:51:26.632Z,20.04
2023-10-14T01:53:53.070Z,20.05
2023-10-14T01:56:19.522Z,20.08
2023-10-14T01:58:45.969Z,20.13
2023-10-14T02:01:12.602Z,20.11
2023-10-14T02:03:39.516Z,20.15
2023-10-14T02:06:06.148Z,20.15
2023-10-14T02:08:32.593Z,20.14
2023-10-14T02:10:59.035Z,20.17
2023-10-14T02:13:25.505Z,20.20
2023-10-14T02:15:52.579Z,20.17
2023-10-14T02:18:19.034Z,20.18
2023-10-14T02:20:45.494Z,20.21
2023-10-14T02:23:11.938Z,20.18
2023-10-14T02:25:38.378Z,20.14
2023-10-14T02:28:04.854Z,20.05
2023-10-14T02:30:31.355Z,20.06
2023-10-14T02:32:57.854Z,20.07
2023-10-14T02:35:24.398Z,20.04
2023-10-14T02:37:51.804Z,20.00
2023-10-14T02:40:18.422Z,19.96
2023-10-14T02:42:44.922Z,19.94
2023-10-14T02:45:11.389Z,19.92
2023-10-14T02:47:37.847Z,19.94
2023-10-14T02:50:04.345Z,19.94
2023-10-14T02:52:31.357Z,19.95
2023-10-14T02:54:57.935Z,19.96
2023-10-14T02:57:24.420Z,19.94
2023-10-14T02:59:50.925Z,19.96
2023-10-14T03:02:17.609Z,19.94
2023-10-14T03:04:44.077Z,19.93
2023-10-14T03:07:10.588Z,19.89
2023-10-14T03:09:37.172Z,19.87
2023-10-14T03:12:03.637Z,19.86
2023-10-14T03:14:30.090Z,19.79
2023-10-14T03:16:56.581Z,19.74
2023-10-14T03:19:23.209Z,19.75
2023-10-14T03:21:49.839Z,19.77
2023-10-14T03:24:16.341Z,19.78
2023-10-14T03:26:42.784Z,19.73
2023-10-14T03:29:09.214Z,19.68
2023-10-14T03:31:35.880Z,19.64
2023-10-14T03:34:02.400Z,19.55
2023-10-14T03:36:28.869Z,19.36
2023-10-14T03:38:55.338Z,19.20
2023-10-14T03:41:21.835Z,19.06
2023-10-14T03:43:48.324Z,18.90
2023-10-14T03:46:14.815Z,18.81
2023-10-14T03:48:41.361Z,18.74
2023-10-14T03:51:07.887Z,18.67
2023-10-14T03:53:34.416Z,18.58
2023-10-14T03:56:00.867Z,18.49
2023-10-14T03:58:27.293Z,18.37
2023-10-14T04:00:53.844Z,18.30
2023-10-14T04:03:20.431Z,18.16
2023-10-14T04:05:46.921Z,18.10
2023-10-14T04:08:13.358Z,18.05
2023-10-14T04:10:39.830Z,17.95
2023-10-14T04:13:06.293Z,17.92
2023-10-14T04:15:32.741Z,17.92
2023-10-14T04:17:59.304Z,17.89
2023-10-14T04:20:25.867Z,17.85
2023-10-14T04:22:52.307Z,17.82
2023-10-14T04:25:18.807Z,17.82
2023-10-14T04:27:45.315Z,17.78
2023-10-14T04:30:11.850Z,17.69
2023-10-14T04:32:38.352Z,17.58
2023-10-14T04:35:04.804Z,17.49
2023-10-14T04:37:31.237Z,17.44
2023-10-14T04:39:57.722Z,17.43
2023-10-14T04:42:24.182Z,17.39
2023-10-14T04:44:50.642Z,17.34
2023-10-14T04:47:17.371Z,17.29
2023-10-14T04:49:43.938Z,17.25
2023-10-14T04:52:10.439Z,17.22
2023-10-14T04:54:36.922Z,17.24
2023-10-14T04:57:03.374Z,17.24
2023-10-14T04:59:29.824Z,17.23
2023-10-14T05:01:56.359Z,17.23
2023-10-14T05:04:23.016Z,17.25
2023-10-14T05:06:49.484Z,17.26
2023-10-14T05:09:16.008Z,17.23
2023-10-14T05:11:42.484Z,17.26
2023-10-14T05:14:08.942Z,17.30
2023-10-14T05:16:35.482Z,17.34
2023-10-14T05:19:02.069Z,17.38
2023-10-14T05:21:28.574Z,17.43
2023-10-14T05:23:55.027Z,17.43
2023-10-14T05:26:21.484Z,17.44
2023-10-14T05:28:47.927Z,17.41
2023-10-14T05:31:14.491Z,17.45
2023-10-14T05:33:41.087Z,17.46
2023-10-14T05:36:07.537Z,17.45
2023-10-14T05:38:33.985Z,17.42
2023-10-14T05:41:00.440Z,17.42
2023-10-14T05:43:26.956Z,17.44
2023-10-14T05:45:53.499Z,17.40
2023-10-14T05:48:20.002Z,17.45
2023-10-14T05:50:46.502Z,17.43
2023-10-14T05:53:13.054Z,17.44
2023-10-14T05:55:39.502Z,17.43
2023-10-14T05:58:05.978Z,17.39
2023-10-14T06:00:32.478Z,17.38
2023-10-14T06:02:58.988Z,17.38
2023-10-14T06:05:25.580Z,17.42
2023-10-14T06:07:52.061Z,17.46
2023-10-14T06:10:18.506Z,17.49
2023-10-14T06:12:44.989Z,17.51
2023-10-14T06:15:12.166Z,17.52
2023-10-14T06:17:38.949Z,17.55
2023-10-14T06:20:05.416Z,17.54
2023-10-14T06:22:31.857Z,17.55
2023-10-14T06:24:58.319Z,17.55
2023-10-14T06:27:24.808Z,17.57
2023-10-14T06:29:52.506Z,17.61
2023-10-14T06:32:21.391Z,17.61
2023-10-14T06:34:48.965Z,17.58
2023-10-14T06:37:15.452Z,17.56
2023-10-14T06:39:41.948Z,17.55
2023-10-14T06:42:08.468Z,17.59
2023-10-14T06:44:34.910Z,17.64
2023-10-14T06:47:01.428Z,17.67
2023-10-14T06:49:29.654Z,17.73
2023-10-14T06:51:57.477Z,17.74
2023-10-14T06:54:23.959Z,17.77
2023-10-14T06:56:50.435Z,17.81
2023-10-14T06:59:16.866Z,17.86
2023-10-14T07:01:43.364Z,17.89
2023-10-14T07:04:09.967Z,17.94
2023-10-14T07:06:37.468Z,17.97
2023-10-14T07:09:03.927Z,17.96
2023-10-14T07:11:30.383Z,17.97
2023-10-14T07:13:56.830Z,18.02
2023-10-14T07:16:23.300Z,18.01
2023-10-14T07:18:49.851Z,18.06
2023-10-14T07:21:16.322Z,18.08
2023-10-14T07:23:42.793Z,18.09
2023-10-14T07:26:09.296Z,18.12
2023-10-14T07:28:35.740Z,18.12
2023-10-14T07:31:02.205Z,18.14
2023-10-14T07:33:28.719Z,18.19
2023-10-14T07:35:55.217Z,18.25
2023-10-14T07:38:21.748Z,18.30
2023-10-14T07:40:48.441Z,18.37
2023-10-14T07:43:15.019Z,18.46
2023-10-14T07:45:41.519Z,18.57
2023-10-14T07:48:07.962Z,18.61
2023-10-14T07:50:34.409Z,18.69
2023-10-14T07:53:00.862Z,18.72
2023-10-14T07:55:27.490Z,18.72
2023-10-14T07:57:54.006Z,18.72
2023-10-14T08:00:20.459Z,18.74
2023-10-14T08:02:46.941Z,18.74
2023-10-14T08:05:13.410Z,18.72
2023-10-14T08:07:39.877Z,18.77
2023-10-14T08:10:06.418Z,18.80
2023-10-14T08:12:32.912Z,18.89
2023-10-14T08:14:59.390Z,18.86
2023-10-14T08:17:25.898Z,18.88
2023-10-14T08:19:52.391Z,18.90
2023-10-14T08:22:18.846Z,18.93
2023-10-14T08:24:45.319Z,18.96
2023-10-14T08:27:11.749Z,19.02
2023-10-14T08:29:38.213Z,19.04
2023-10-14T08:32:04.694Z,19.03
2023-10-14T08:34:31.211Z,19.05
2023-10-14T08:36:57.770Z,19.03
2023-10-14T08:39:24.453Z,19.03
2023-10-14T08:41:51.063Z,19.05
2023-10-14T08:44:17.513Z,19.09
2023-10-14T08:46:44.021Z,19.14
2023-10-14T08:49:10.762Z,19.18
2023-10-14T08:51:52.895Z,19.18
2023-10-14T08:54:20.981Z,19.20
2023-10-14T08:56:47.452Z,19.21
2023-10-14T08:59:13.936Z,19.28
2023-10-14T09:01:40.522Z,19.29
2023-10-14T09:04:07.121Z,19.33
2023-10-14T09:06:33.643Z,19.37
2023-10-14T09:09:00.109Z,19.39
2023-10-14T09:11:26.581Z,19.41
2023-10-14T09:13:53.022Z,19.41
2023-10-14T09:16:19.557Z,19.42
2023-10-14T09:18:46.062Z,19.38
2023-10-14T09:21:12.605Z,19.30
2023-10-14T09:23:39.032Z,19.28
2023-10-14T09:26:05.622Z,19.24
2023-10-14T09:28:32.154Z,19.21
2023-10-14T09:30:58.702Z,19.18
2023-10-14T09:33:25.265Z,19.17
2023-10-14T09:35:51.729Z,19.14
2023-10-14T09:38:18.202Z,19.13
2023-10-14T09:40:44.668Z,19.14
2023-10-14T09:43:11.137Z,19.19
2023-10-14T09:45:37.676Z,19.21
2023-10-14T09:48:04.249Z,19.21
2023-10-14T09:50:30.733Z,19.21
2023-10-14T09:52:57.174Z,19.17
2023-10-14T09:55:23.646Z,19.14
2023-10-14T09:57:50.161Z,19.09
2023-10-14T10:00:16.634Z,19.09
2023-10-14T10:02:43.129Z,19.13
2023-10-14T10:05:09.624Z,19.18
2023-10-14T10:07:36.121Z,19.21
2023-10-14T10:10:02.802Z,19.22
2023-10-14T10:12:29.457Z,19.15
2023-10-14T10:14:55.901Z,19.04
2023-10-14T10:17:22.361Z,18.92
2023-10-14T10:19:49.186Z,18.73
2023-10-14T10:22:16.539Z,18.55
2023-10-14T10:24:43.037Z,18.45
2023-10-14T10:27:09.534Z,18.38
2023-10-14T10:29:35.995Z,18.31
2023-10-14T10:32:02.495Z,18.22
2023-10-14T10:34:29.034Z,18.17
2023-10-14T10:36:55.572Z,18.13
2023-10-14T10:39:22.341Z,18.01
2023-10-14T10:41:48.966Z,18.00
2023-10-14T10:44:15.432Z,17.95
2023-10-14T10:46:42.069Z,17.87
2023-10-14T10:49:08.746Z,18.00
2023-10-14T10:51:35.286Z,18.02
2023-10-14T10:54:01.761Z,18.17
2023-10-14T10:56:28.209Z,18.33
2023-10-14T10:58:54.656Z,18.47
2023-10-14T11:01:21.263Z,18.60
2023-10-14T11:03:47.908Z,18.75
2023-10-14T11:06:14.385Z,18.86
2023-10-14T11:08:40.830Z,18.95
2023-10-14T11:11:07.343Z,18.98
2023-10-14T11:13:33.908Z,19.09
2023-10-14T11:16:00.440Z,19.22
2023-10-14T11:18:38.492Z,19.39
2023-10-14T11:21:06.182Z,19.34
2023-10-14T11:23:32.670Z,19.39
2023-10-14T11:25:59.154Z,19.47
2023-10-14T11:28:25.627Z,19.47
2023-10-14T11:30:52.246Z,19.51
2023-10-14T11:33:18.783Z,19.48
2023-10-14T11:35:46.151Z,19.55
2023-10-14T11:38:12.726Z,19.44
2023-10-14T11:40:39.188Z,19.40
2023-10-14T11:43:05.720Z,19.37
2023-10-14T11:45:32.203Z,19.34
2023-10-14T11:47:59.285Z,19.27
2023-10-14T11:50:26.844Z,19.18
2023-10-14T11:52:53.298Z,19.14
2023-10-14T11:55:19.780Z,19.13
2023-10-14T11:57:46.277Z,19.13
2023-10-14T12:00:12.779Z,19.14
2023-10-14T12:02:39.298Z,19.13
2023-10-14T12:05:05.908Z,19.10
2023-10-14T12:07:32.500Z,19.12
2023-10-14T12:09:59.127Z,19.17
2023-10-14T12:12:25.709Z,19.22
2023-10-14T12:14:52.147Z,19.24
2023-10-14T12:17:18.618Z,19.23
2023-10-14T12:19:45.064Z,19.30
2023-10-14T12:22:11.583Z,19.42
2023-10-14T12:24:38.120Z,19.47
2023-10-14T12:27:04.567Z,19.50
2023-10-14T12:29:31.018Z,19.52
2023-10-14T12:32:07.501Z,19.53
2023-10-14T12:34:43.885Z,19.57
2023-10-14T12:37:11.912Z,19.62
2023-10-14T12:39:39.920Z,19.64
2023-10-14T12:42:06.388Z,19.71
2023-10-14T12:44:32.843Z,19.76
2023-10-14T12:46:59.525Z,19.79
2023-10-14T12:49:26.229Z,19.74
2023-10-14T12:51:52.881Z,19.71
2023-10-14T12:54:19.621Z,19.53
2023-10-14T12:56:46.178Z,19.03
2023-10-14T12:59:12.650Z,18.48
2023-10-14T13:01:39.208Z,18.10
2023-10-14T13:04:05.846Z,17.87
2023-10-14T13:06:32.324Z,17.65
2023-10-14T13:08:58.784Z,17.54
2023-10-14T13:11:25.225Z,17.49
2023-10-14T13:13:51.730Z,17.42
2023-10-14T13:16:18.324Z,17.23
2023-10-14T13:18:44.856Z,17.19
2023-10-14T13:21:11.304Z,17.09
2023-10-14T13:23:37.827Z,16.98
2023-10-14T13:26:04.337Z,16.97
2023-10-14T13:28:30.838Z,16.99
2023-10-14T13:30:57.414Z,17.01
2023-10-14T13:33:24.649Z,16.95
2023-10-14T13:35:51.263Z,16.88
2023-10-14T13:38:17.747Z,16.84
2023-10-14T13:40:44.852Z,16.84
2023-10-14T13:43:11.409Z,16.80
2023-10-14T13:45:37.884Z,16.86
2023-10-14T13:48:04.384Z,17.00
2023-10-14T13:50:30.963Z,17.01
2023-10-14T13:52:57.448Z,17.02
2023-10-14T13:55:24.979Z,16.95
2023-10-14T13:57:51.464Z,16.95
2023-10-14T14:00:17.939Z,16.94
2023-10-14T14:02:44.461Z,16.92
2023-10-14T14:05:11.037Z,16.96
2023-10-14T14:07:37.954Z,17.00
2023-10-14T14:10:04.439Z,16.93
2023-10-14T14:12:30.952Z,16.88
2023-10-14T14:14:57.446Z,16.89
2023-10-14T14:17:24.020Z,16.90
2023-10-14T14:19:50.596Z,16.85
2023-10-14T14:22:17.109Z,16.85
2023-10-14T14:24:43.654Z,16.93
2023-10-14T14:27:10.204Z,16.97
2023-10-14T14:29:36.689Z,17.01
2023-10-14T14:32:03.309Z,17.01
2023-10-14T14:34:31.770Z,17.03
2023-10-14T14:36:59.067Z,17.07
2023-10-14T14:39:25.722Z,16.98
2023-10-14T14:41:52.292Z,16.83
2023-10-14T14:44:18.759Z,16.87
2023-10-14T14:46:45.278Z,16.96
2023-10-14T14:49:11.844Z,16.98
2023-10-14T14:51:38.300Z,16.93
2023-10-14T14:54:04.765Z,16.94
2023-10-14T14:56:31.354Z,16.82
2023-10-14T14:58:57.802Z,16.66
2023-10-14T15:01:24.346Z,16.61
2023-10-14T15:03:50.883Z,16.57
2023-10-14T15:06:17.366Z,16.53
2023-10-14T15:08:43.802Z,16.53
2023-10-14T15:11:10.245Z,16.39
2023-10-14T15:16:03.467Z,16.25
2023-10-14T15:18:31.055Z,16.11
2023-10-14T15:20:57.652Z,15.95
2023-10-14T15:23:24.184Z,15.83
2023-10-14T15:25:50.687Z,15.73
2023-10-14T15:28:17.276Z,15.64
2023-10-14T15:30:44.337Z,15.56
2023-10-14T15:33:11.059Z,15.41
2023-10-14T15:35:37.902Z,15.23
2023-10-14T15:38:04.385Z,15.23
2023-10-14T15:40:30.908Z,15.22
2023-10-14T15:42:57.402Z,15.07
2023-10-14T15:45:24.582Z,15.09
2023-10-14T15:47:51.202Z,15.12
2023-10-14T15:50:17.724Z,15.03
2023-10-14T15:52:44.205Z,14.96
2023-10-14T15:55:10.699Z,14.91
2023-10-14T15:57:37.213Z,14.96
2023-10-14T16:00:03.686Z,14.89
2023-10-14T16:02:30.314Z,14.91
2023-10-14T16:04:56.830Z,14.89
2023-10-14T16:07:23.306Z,14.82
2023-10-14T16:09:49.793Z,14.76
2023-10-14T16:12:16.242Z,14.67
2023-10-14T16:14:42.812Z,14.67
2023-10-14T16:17:09.281Z,14.69
2023-10-14T16:19:35.797Z,14.70
2023-10-14T16:22:02.550Z,14.69
2023-10-14T16:24:29.031Z,14.58
2023-10-14T16:26:55.658Z,14.62
2023-10-14T16:29:25.584Z,14.64
2023-10-14T16:31:52.560Z,14.60
2023-10-14T16:34:19.176Z,14.64
2023-10-14T16:36:45.664Z,14.58
2023-10-14T16:39:12.125Z,14.61
2023-10-14T16:41:38.593Z,14.65
2023-10-14T16:44:05.034Z,14.70
2023-10-14T16:46:31.604Z,14.69
2023-10-14T16:48:58.143Z,14.74
2023-10-14T16:51:24.621Z,14.73
2023-10-14T16:53:53.061Z,14.75
2023-10-14T16:56:20.280Z,14.69
2023-10-14T16:58:46.811Z,14.71
2023-10-14T17:01:13.400Z,14.76
2023-10-14T17:03:40.559Z,14.71
2023-10-14T17:06:07.051Z,14.52
2023-10-14T17:08:33.727Z,14.47
2023-10-14T17:11:00.182Z,14.21
2023-10-14T17:13:26.646Z,14.13
2023-10-14T17:15:53.263Z,14.01
2023-10-14T17:18:20.079Z,13.97
2023-10-14T17:20:46.675Z,13.94
2023-10-14T17:23:13.331Z,13.94
2023-10-14T17:25:39.826Z,13.89
2023-10-14T17:28:06.564Z,13.87
2023-10-14T17:30:33.382Z,13.82
2023-10-14T17:33:00.802Z,13.90
2023-10-14T17:35:27.621Z,13.91
2023-10-14T17:37:54.096Z,13.96
2023-10-14T17:40:20.572Z,13.99
2023-10-14T17:42:47.088Z,14.05
2023-10-14T17:45:13.526Z,14.09
2023-10-14T17:47:40.034Z,14.15
2023-10-14T17:50:06.743Z,14.21
2023-10-14T17:52:33.396Z,14.29
2023-10-14T17:54:59.992Z,14.25
2023-10-14T17:57:26.471Z,14.24
2023-10-14T17:59:53.072Z,14.25
2023-10-14T18:02:19.525Z,14.34
2023-10-14T18:04:46.061Z,14.37
2023-10-14T18:07:12.934Z,14.41
2023-10-14T18:09:39.414Z,14.38
2023-10-14T18:12:05.876Z,14.33
2023-10-14T18:14:32.599Z,14.36
2023-10-14T18:17:03.756Z,14.36
2023-10-14T18:19:30.712Z,14.35
2023-10-14T18:21:57.414Z,14.36
2023-10-14T18:24:24.969Z,14.35
2023-10-14T18:26:51.443Z,14.27
2023-10-14T18:29:18.635Z,14.22
2023-10-14T18:31:45.936Z,14.21
2023-10-14T18:34:13.389Z,14.17
2023-10-14T18:36:40.940Z,14.11
2023-10-14T18:39:07.426Z,13.90
2023-10-14T18:41:33.910Z,13.79
2023-10-14T18:44:00.695Z,13.69
2023-10-14T18:46:27.373Z,13.66
2023-10-14T18:48:54.871Z,13.70
2023-10-14T18:51:21.360Z,13.71
2023-10-14T18:53:47.814Z,13.75
2023-10-14T18:56:14.279Z,13.79
2023-10-14T18:58:41.264Z,13.79
2023-10-14T19:01:08.915Z,13.76
2023-10-14T19:03:36.569Z,13.70
2023-10-14T19:06:03.101Z,13.52
2023-10-14T19:08:29.601Z,13.41
2023-10-14T19:10:58.055Z,13.37
2023-10-14T19:13:24.582Z,13.31
2023-10-14T19:15:51.039Z,13.31
2023-10-14T19:18:17.574Z,13.24
2023-10-14T19:20:44.066Z,13.14
2023-10-14T19:23:11.126Z,13.11
2023-10-14T19:25:37.733Z,12.92
2023-10-14T19:28:05.322Z,12.90
2023-10-14T19:30:31.788Z,12.86
2023-10-14T19:32:59.593Z,12.77
2023-10-14T19:35:26.087Z,12.63
2023-10-14T19:37:53.925Z,12.58
2023-10-14T19:40:21.324Z,12.50
2023-10-14T19:42:47.966Z,12.54
2023-10-14T19:45:15.457Z,12.48
2023-10-14T19:47:41.984Z,12.44
2023-10-14T19:50:08.600Z,12.43
2023-10-14T19:52:35.245Z,12.38
2023-10-14T19:55:02.824Z,12.34
2023-10-14T19:57:29.445Z,12.37
2023-10-14T19:59:57.017Z,12.44
2023-10-14T20:02:23.609Z,12.40
2023-10-14T20:04:50.219Z,12.31
2023-10-14T20:07:16.808Z,12.25
2023-10-14T20:09:43.306Z,12.28
2023-10-14T20:12:09.826Z,12.21
2023-10-14T20:14:36.283Z,12.16
2023-10-14T20:17:02.847Z,12.19
2023-10-14T20:19:29.426Z,12.18
2023-10-14T20:21:55.952Z,12.24
2023-10-14T20:24:22.948Z,12.24
2023-10-14T20:26:50.467Z,12.27
2023-10-14T20:29:16.944Z,12.22
2023-10-14T20:31:43.772Z,12.16
2023-10-14T20:34:11.252Z,12.15
2023-10-14T20:36:37.711Z,12.16
2023-10-14T20:39:04.155Z,12.10
2023-10-14T20:41:30.665Z,11.97
2023-10-14T20:43:57.336Z,11.80
2023-10-14T20:46:23.872Z,11.77
2023-10-14T20:48:50.367Z,11.87
2023-10-14T20:51:16.842Z,11.94
2023-10-14T20:53:43.314Z,11.91
2023-10-14T20:56:10.269Z,11.96
2023-10-14T20:58:36.885Z,11.92
2023-10-14T21:01:03.396Z,11.98
2023-10-14T21:03:29.939Z,12.01
2023-10-14T21:05:56.522Z,12.02
2023-10-14T21:08:23.211Z,12.04
2023-10-14T21:10:49.726Z,12.12
2023-10-14T21:13:16.230Z,12.20
2023-10-14T21:15:42.733Z,12.24
2023-10-14T21:18:09.325Z,12.25
2023-10-14T21:20:35.873Z,12.11
2023-10-14T21:23:02.380Z,12.08
2023-10-14T21:25:28.852Z,12.03
2023-10-14T21:27:56.292Z,12.11
2023-10-14T21:30:23.286Z,12.13
2023-10-14T21:32:49.799Z,12.03
2023-10-14T21:35:16.254Z,12.01
2023-10-14T21:37:42.883Z,12.04
2023-10-14T21:40:09.397Z,12.10
2023-10-14T21:42:35.851Z,12.16
2023-10-14T21:45:02.312Z,12.13
2023-10-14T21:47:28.853Z,12.15
2023-10-14T21:49:55.373Z,12.18
2023-10-14T21:52:21.905Z,12.18
2023-10-14T21:54:48.419Z,12.17
2023-10-14T21:57:14.874Z,12.17
2023-10-14T21:59:41.313Z,12.30
2023-10-14T22:02:07.837Z,12.31
2023-10-14T22:04:34.455Z,12.36
2023-10-14T22:07:00.945Z,12.26
2023-10-14T22:09:27.396Z,12.21
2023-10-14T22:11:53.840Z,12.18
2023-10-14T22:14:20.358Z,12.21
2023-10-14T22:16:46.858Z,12.24
2023-10-14T22:19:13.618Z,12.17
2023-10-14T22:21:40.155Z,12.21
2023-10-14T22:24:06.596Z,12.31
2023-10-14T22:26:33.271Z,12.42
2023-10-14T22:28:59.866Z,12.47
2023-10-14T22:31:26.463Z,12.45
2023-10-14T22:33:53.013Z,12.44
2023-10-14T22:36:19.516Z,12.39
2023-10-14T22:38:45.987Z,12.41
2023-10-14T22:41:12.697Z,12.43
2023-10-14T22:43:39.324Z,12.49
2023-10-14T22:46:05.899Z,12.56
2023-10-14T22:48:32.349Z,12.58
2023-10-14T22:50:58.871Z,12.59
2023-10-14T22:53:25.315Z,12.59
2023-10-14T22:55:52.885Z,12.45
2023-10-14T22:58:20.007Z,12.39
2023-10-14T23:00:47.539Z,12.23
2023-10-14T23:03:15.120Z,12.19
2023-10-14T23:05:41.641Z,12.22
2023-10-14T23:08:08.863Z,12.27
2023-10-14T23:10:36.058Z,12.35
2023-10-14T23:13:04.447Z,12.38
2023-10-14T23:15:31.066Z,12.34
2023-10-14T23:17:57.759Z,12.18
2023-10-14T23:20:24.600Z,12.10
2023-10-14T23:22:51.142Z,12.09
2023-10-14T23:25:17.638Z,12.01
2023-10-14T23:27:44.115Z,12.00
2023-10-14T23:30:10.573Z,12.05
2023-10-14T23:32:37.055Z,12.01
2023-10-14T23:35:03.513Z,12.00
2023-10-14T23:37:30.048Z,12.01
2023-10-14T23:39:56.564Z,12.02
2023-10-14T23:42:23.020Z,11.92
2023-10-14T23:44:49.455Z,11.94
2023-10-14T23:47:16.022Z,11.99
2023-10-14T23:49:42.665Z,12.04
2023-10-14T23:52:09.141Z,12.08
2023-10-14T23:54:35.617Z,12.17
2023-10-14T23:57:02.081Z,12.24
2023-10-14T23:59:28.552Z,12.32
